createdAt,value
2023-03-17T00:01:24.062Z,3.39
2023-03-17T00:03:52.082Z,3.33
2023-03-17T00:06:29.542Z,3.25
2023-03-17T00:08:58.354Z,3.19
2023-03-17T00:11:27.737Z,3.11
2023-03-17T00:13:55.593Z,3.06
2023-03-17T00:16:25.847Z,3.00
2023-03-17T00:18:55.128Z,2.95
2023-03-17T00:21:26.058Z,2.90
2023-03-17T00:23:55.071Z,2.85
2023-03-17T00:26:24.245Z,2.79
2023-03-17T00:28:53.469Z,2.74
2023-03-17T00:31:24.655Z,2.72
2023-03-17T00:33:54.306Z,2.69
2023-03-17T00:36:24.143Z,2.65
2023-03-17T00:38:52.921Z,2.62
2023-03-17T00:41:20.974Z,2.60
2023-03-17T00:43:48.955Z,2.59
2023-03-17T00:46:18.798Z,2.58
2023-03-17T00:48:47.034Z,2.57
2023-03-17T00:51:18.385Z,2.55
2023-03-17T00:53:46.858Z,2.52
2023-03-17T00:56:19.541Z,2.51
2023-03-17T00:58:48.326Z,2.49
2023-03-17T01:01:18.470Z,2.47
2023-03-17T01:03:48.321Z,2.46
2023-03-17T01:06:16.749Z,2.45
2023-03-17T01:08:45.365Z,2.45
2023-03-17T01:11:16.233Z,2.45
2023-03-17T01:13:44.950Z,2.45
2023-03-17T01:16:13.375Z,2.44
2023-03-17T01:18:41.571Z,2.41
2023-03-17T01:21:09.800Z,2.38
2023-03-17T01:23:38.163Z,2.35
2023-03-17T01:26:07.263Z,2.33
2023-03-17T01:28:35.949Z,2.30
2023-03-17T01:31:05.188Z,2.26
2023-03-17T01:33:33.933Z,2.22
2023-03-17T01:36:02.134Z,2.20
2023-03-17T01:38:30.380Z,2.15
2023-03-17T01:40:58.432Z,2.10
2023-03-17T01:43:30.942Z,2.05
2023-03-17T01:46:12.447Z,1.98
2023-03-17T01:48:51.341Z,1.90
2023-03-17T01:51:24.747Z,1.84
2023-03-17T01:53:53.724Z,1.80
2023-03-17T01:56:21.802Z,1.76
2023-03-17T01:58:52.131Z,1.71
2023-03-17T02:01:24.287Z,1.68
2023-03-17T02:03:53.624Z,1.65
2023-03-17T02:06:22.494Z,1.60
2023-03-17T02:08:50.557Z,1.58
2023-03-17T02:11:19.047Z,1.57
2023-03-17T02:13:47.014Z,1.59
2023-03-17T02:16:16.255Z,1.59
2023-03-17T02:18:45.214Z,1.59
2023-03-17T02:21:33.973Z,1.58
2023-03-17T02:24:03.261Z,1.57
2023-03-17T02:26:33.589Z,1.55
2023-03-17T02:29:02.068Z,1.52
2023-03-17T02:31:30.449Z,1.48
2023-03-17T02:33:58.415Z,1.44
2023-03-17T02:36:26.300Z,1.42
2023-03-17T02:38:54.357Z,1.38
2023-03-17T02:41:22.169Z,1.32
2023-03-17T02:43:50.190Z,1.26
2023-03-17T02:46:18.474Z,1.23
2023-03-17T02:48:46.625Z,1.23
2023-03-17T02:51:14.727Z,1.25
2023-03-17T02:53:42.686Z,1.28
2023-03-17T02:56:10.662Z,1.28
2023-03-17T02:58:38.623Z,1.25
2023-03-17T03:01:06.668Z,1.27
2023-03-17T03:03:34.774Z,1.29
2023-03-17T03:06:03.275Z,1.29
2023-03-17T03:08:31.220Z,1.29
2023-03-17T03:11:00.633Z,1.26
2023-03-17T03:13:28.902Z,1.21
2023-03-17T03:15:56.975Z,1.16
2023-03-17T03:18:24.997Z,1.12
2023-03-17T03:20:53.026Z,1.07
2023-03-17T03:23:21.088Z,0.98
2023-03-17T03:25:49.161Z,0.87
2023-03-17T03:28:17.028Z,0.81
2023-03-17T03:30:45.756Z,0.74
2023-03-17T03:33:14.444Z,0.67
2023-03-17T03:35:43.398Z,0.63
2023-03-17T03:38:11.981Z,0.60
2023-03-17T03:40:39.966Z,0.56
2023-03-17T03:43:22.054Z,0.51
2023-03-17T03:45:51.884Z,0.44
2023-03-17T03:48:19.830Z,0.39
2023-03-17T03:50:47.939Z,0.36
2023-03-17T03:53:15.805Z,0.31
2023-03-17T03:55:43.661Z,0.26
2023-03-17T03:58:11.607Z,0.22
2023-03-17T04:00:39.780Z,0.17
2023-03-17T04:03:07.864Z,0.14
2023-03-17T04:05:36.428Z,0.10
2023-03-17T04:08:04.417Z,0.07
2023-03-17T04:10:32.747Z,0.03
2023-03-17T04:13:01.775Z,0.01
2023-03-17T04:15:29.750Z,-0.00
2023-03-17T04:17:57.586Z,-0.05
2023-03-17T04:20:25.680Z,-0.07
2023-03-17T04:22:53.657Z,-0.11
2023-03-17T04:25:21.922Z,-0.15
2023-03-17T04:27:49.741Z,-0.18
2023-03-17T04:30:17.973Z,-0.20
2023-03-17T04:32:46.607Z,-0.22
2023-03-17T04:35:16.576Z,-0.26
2023-03-17T04:37:44.950Z,-0.30
2023-03-17T04:40:13.791Z,-0.32
2023-03-17T04:42:42.422Z,-0.34
2023-03-17T04:45:12.053Z,-0.37
2023-03-17T04:47:39.942Z,-0.39
2023-03-17T04:50:09.016Z,-0.42
2023-03-17T04:52:37.596Z,-0.45
2023-03-17T04:55:08.391Z,-0.46
2023-03-17T04:57:36.967Z,-0.50
2023-03-17T05:00:06.366Z,-0.51
2023-03-17T05:02:34.470Z,-0.51
2023-03-17T05:05:02.886Z,-0.52
2023-03-17T05:07:33.873Z,-0.51
2023-03-17T05:10:02.373Z,-0.49
2023-03-17T05:12:30.656Z,-0.48
2023-03-17T05:14:58.943Z,-0.47
2023-03-17T05:17:27.112Z,-0.44
2023-03-17T05:19:55.069Z,-0.42
2023-03-17T05:22:23.141Z,-0.39
2023-03-17T05:24:51.008Z,-0.37
2023-03-17T05:27:18.946Z,-0.34
2023-03-17T05:29:47.766Z,-0.31
2023-03-17T05:32:15.841Z,-0.28
2023-03-17T05:34:45.270Z,-0.24
2023-03-17T05:37:14.336Z,-0.20
2023-03-17T05:39:42.232Z,-0.15
2023-03-17T05:42:10.295Z,-0.11
2023-03-17T05:44:38.350Z,-0.06
2023-03-17T05:47:08.200Z,-0.01
2023-03-17T05:49:36.337Z,0.04
2023-03-17T05:52:04.309Z,0.08
2023-03-17T05:54:32.278Z,0.15
2023-03-17T05:57:00.248Z,0.23
2023-03-17T05:59:28.225Z,0.30
2023-03-17T06:01:56.389Z,0.37
2023-03-17T06:04:24.365Z,0.44
2023-03-17T06:06:52.578Z,0.51
2023-03-17T06:09:20.508Z,0.57
2023-03-17T06:11:48.474Z,0.66
2023-03-17T06:14:16.443Z,0.73
2023-03-17T06:16:44.618Z,0.80
2023-03-17T06:19:12.453Z,0.89
2023-03-17T06:21:40.585Z,0.94
2023-03-17T06:24:08.960Z,1.01
2023-03-17T06:26:37.631Z,1.05
2023-03-17T06:29:09.196Z,1.12
2023-03-17T06:31:37.322Z,1.17
2023-03-17T06:34:05.657Z,1.24
2023-03-17T06:36:33.821Z,1.34
2023-03-17T06:39:02.283Z,1.48
2023-03-17T06:41:30.251Z,1.64
2023-03-17T06:43:58.201Z,1.75
2023-03-17T06:46:26.255Z,1.84
2023-03-17T06:48:54.468Z,1.94
2023-03-17T06:51:22.334Z,2.05
2023-03-17T06:53:50.306Z,2.11
2023-03-17T06:56:29.547Z,2.20
2023-03-17T06:58:58.433Z,2.40
2023-03-17T07:01:27.921Z,2.53
2023-03-17T07:03:56.414Z,2.65
2023-03-17T07:06:24.308Z,2.78
2023-03-17T07:08:52.453Z,2.86
2023-03-17T07:11:20.839Z,3.00
2023-03-17T07:13:48.636Z,3.17
2023-03-17T07:16:19.602Z,3.32
2023-03-17T07:18:48.438Z,3.50
2023-03-17T07:21:16.730Z,3.65
2023-03-17T07:23:44.881Z,3.82
2023-03-17T07:26:12.827Z,3.99
2023-03-17T07:28:40.817Z,4.14
2023-03-17T07:31:09.689Z,4.30
2023-03-17T07:33:38.291Z,4.46
2023-03-17T07:36:07.483Z,4.60
2023-03-17T07:38:36.284Z,4.70
2023-03-17T07:41:05.078Z,4.80
2023-03-17T07:43:33.564Z,4.89
2023-03-17T07:46:01.707Z,4.97
2023-03-17T07:48:31.331Z,5.04
2023-03-17T07:50:59.508Z,5.12
2023-03-17T07:53:27.683Z,5.20
2023-03-17T07:55:55.962Z,5.28
2023-03-17T07:58:23.833Z,5.35
2023-03-17T08:00:52.002Z,5.42
2023-03-17T08:03:20.017Z,5.49
2023-03-17T08:05:51.721Z,5.49
2023-03-17T08:08:22.359Z,5.25
2023-03-17T08:10:51.023Z,5.33
2023-03-17T08:13:20.012Z,5.45
2023-03-17T08:15:47.912Z,5.53
2023-03-17T08:18:15.945Z,5.44
2023-03-17T08:20:44.003Z,5.49
2023-03-17T08:23:11.914Z,5.42
2023-03-17T08:25:40.022Z,5.53
2023-03-17T08:28:08.187Z,5.64
2023-03-17T08:30:37.985Z,5.80
2023-03-17T08:33:06.251Z,5.82
2023-03-17T08:35:34.745Z,5.99
2023-03-17T08:38:03.731Z,6.07
2023-03-17T08:40:32.030Z,6.20
2023-03-17T08:43:00.568Z,6.40
2023-03-17T08:45:28.590Z,6.59
2023-03-17T08:47:56.750Z,6.78
2023-03-17T08:50:25.341Z,6.97
2023-03-17T08:52:54.508Z,7.02
2023-03-17T08:55:22.484Z,7.22
2023-03-17T08:57:50.460Z,7.48
2023-03-17T09:00:20.468Z,7.68
2023-03-17T09:02:48.909Z,7.69
2023-03-17T09:05:17.802Z,7.67
2023-03-17T09:07:45.968Z,7.68
2023-03-17T09:10:15.059Z,7.75
2023-03-17T09:12:43.079Z,7.85
2023-03-17T09:15:12.039Z,7.90
2023-03-17T09:17:40.049Z,7.77
2023-03-17T09:20:08.552Z,8.03
2023-03-17T09:22:37.009Z,8.26
2023-03-17T09:25:05.284Z,8.48
2023-03-17T09:27:33.248Z,8.69
2023-03-17T09:30:01.221Z,8.72
2023-03-17T09:32:29.205Z,8.38
2023-03-17T09:34:57.784Z,8.33
2023-03-17T09:37:26.356Z,8.32
2023-03-17T09:39:54.163Z,8.23
2023-03-17T09:42:36.533Z,8.20
2023-03-17T09:45:23.553Z,8.16
2023-03-17T09:47:51.519Z,8.13
2023-03-17T09:50:24.040Z,8.06
2023-03-17T09:52:55.551Z,8.09
2023-03-17T09:55:28.236Z,8.05
2023-03-17T09:58:01.057Z,8.04
2023-03-17T10:00:31.304Z,8.04
2023-03-17T10:03:00.020Z,8.02
2023-03-17T10:05:30.249Z,7.98
2023-03-17T10:08:22.739Z,7.90
2023-03-17T10:11:00.119Z,7.96
2023-03-17T10:13:28.151Z,8.05
2023-03-17T10:16:28.522Z,8.30
2023-03-17T10:18:58.700Z,8.67
2023-03-17T10:21:32.992Z,9.00
2023-03-17T10:24:03.256Z,9.30
2023-03-17T10:26:33.878Z,9.48
2023-03-17T10:29:04.433Z,9.64
2023-03-17T10:31:34.979Z,9.82
2023-03-17T10:34:20.405Z,9.99
2023-03-17T10:36:55.577Z,10.23
2023-03-17T10:39:24.780Z,10.37
2023-03-17T10:41:59.696Z,10.51
2023-03-17T10:44:39.832Z,10.63
2023-03-17T10:47:20.613Z,10.77
2023-03-17T10:49:49.184Z,10.78
2023-03-17T10:52:23.556Z,10.62
2023-03-17T10:54:51.487Z,10.67
2023-03-17T10:57:20.087Z,10.90
2023-03-17T10:59:49.456Z,11.10
2023-03-17T11:02:25.910Z,11.43
2023-03-17T11:05:05.286Z,11.69
2023-03-17T11:07:40.199Z,11.94
2023-03-17T11:10:17.538Z,12.21
2023-03-17T11:12:48.606Z,12.25
2023-03-17T11:15:18.045Z,12.19
2023-03-17T11:17:56.136Z,12.31
2023-03-17T11:20:24.113Z,12.46
2023-03-17T11:23:00.917Z,12.34
2023-03-17T11:25:29.759Z,12.14
2023-03-17T11:28:17.068Z,11.96
2023-03-17T11:30:54.395Z,12.02
2023-03-17T11:33:41.201Z,12.38
2023-03-17T11:36:28.215Z,12.53
2023-03-17T11:38:56.338Z,12.73
2023-03-17T11:41:28.577Z,12.57
2023-03-17T11:44:15.842Z,13.07
2023-03-17T11:47:19.594Z,13.36
2023-03-17T11:50:10.295Z,13.69
2023-03-17T11:52:58.432Z,13.63
2023-03-17T11:55:36.558Z,13.93
2023-03-17T11:58:13.575Z,14.33
2023-03-17T12:00:53.065Z,14.28
2023-03-17T12:03:36.719Z,12.92
2023-03-17T12:06:07.645Z,13.12
2023-03-17T12:08:36.031Z,13.91
2023-03-17T12:11:07.052Z,14.00
2023-03-17T12:13:40.327Z,14.56
2023-03-17T12:16:29.619Z,14.84
2023-03-17T12:19:16.984Z,15.45
2023-03-17T12:21:54.442Z,15.99
2023-03-17T12:24:35.090Z,15.91
2023-03-17T12:27:07.649Z,15.49
2023-03-17T12:29:52.616Z,15.61
2023-03-17T12:32:26.722Z,15.39
2023-03-17T12:34:57.477Z,15.29
2023-03-17T12:37:27.838Z,15.56
2023-03-17T12:40:07.466Z,15.76
2023-03-17T12:42:38.816Z,16.11
2023-03-17T12:45:09.541Z,16.35
2023-03-17T12:47:52.783Z,17.53
2023-03-17T12:50:23.714Z,18.47
2023-03-17T12:52:53.218Z,19.23
2023-03-17T12:55:24.565Z,20.00
2023-03-17T12:58:03.936Z,20.71
2023-03-17T13:00:33.550Z,21.33
2023-03-17T13:03:20.476Z,21.24
2023-03-17T13:05:51.153Z,21.71
2023-03-17T13:08:24.446Z,22.01
2023-03-17T13:11:12.791Z,22.32
2023-03-17T13:13:44.786Z,22.47
2023-03-17T13:16:37.644Z,22.42
2023-03-17T13:19:20.229Z,22.81
2023-03-17T13:21:53.013Z,23.06
2023-03-17T13:24:22.411Z,22.53
2023-03-17T13:26:50.270Z,22.18
2023-03-17T13:29:33.547Z,22.47
2023-03-17T13:32:20.015Z,22.46
2023-03-17T13:34:49.917Z,21.30
2023-03-17T13:37:36.492Z,21.22
2023-03-17T13:40:22.213Z,19.35
2023-03-17T13:42:50.194Z,18.83
2023-03-17T13:45:32.350Z,16.57
2023-03-17T13:48:19.103Z,16.04
2023-03-17T13:50:47.578Z,16.60
2023-03-17T13:53:16.061Z,16.91
2023-03-17T13:56:03.848Z,17.27
2023-03-17T13:58:33.399Z,17.92
2023-03-17T14:01:05.489Z,18.61
2023-03-17T14:03:42.191Z,19.37
2023-03-17T14:06:12.337Z,19.24
2023-03-17T14:08:49.347Z,19.56
2023-03-17T14:11:24.881Z,19.20
2023-03-17T14:13:56.231Z,18.74
2023-03-17T14:16:30.198Z,17.75
2023-03-17T14:19:11.127Z,17.50
2023-03-17T14:21:39.192Z,18.22
2023-03-17T14:24:29.926Z,18.22
2023-03-17T14:26:57.964Z,17.96
2023-03-17T14:29:29.762Z,17.65
2023-03-17T14:32:12.141Z,17.34
2023-03-17T14:34:48.424Z,17.60
2023-03-17T14:37:16.672Z,17.36
2023-03-17T14:39:46.489Z,16.39
2023-03-17T14:42:14.764Z,15.11
2023-03-17T14:44:43.255Z,15.52
2023-03-17T14:47:23.711Z,15.71
2023-03-17T14:49:53.522Z,15.22
2023-03-17T14:52:23.945Z,14.39
2023-03-17T14:54:53.718Z,13.78
2023-03-17T14:57:23.878Z,13.37
2023-03-17T14:59:59.750Z,12.70
2023-03-17T15:02:33.298Z,12.33
2023-03-17T15:05:20.055Z,12.27
2023-03-17T15:07:48.021Z,12.31
2023-03-17T15:10:20.706Z,12.36
2023-03-17T15:12:49.083Z,12.43
2023-03-17T15:15:22.779Z,12.51
2023-03-17T15:17:52.199Z,11.79
2023-03-17T15:20:20.868Z,11.65
2023-03-17T15:22:56.203Z,11.67
2023-03-17T15:25:24.079Z,11.33
2023-03-17T15:27:52.558Z,11.14
2023-03-17T15:30:21.249Z,11.34
2023-03-17T15:33:00.709Z,11.19
2023-03-17T15:35:29.067Z,11.04
2023-03-17T15:37:57.140Z,11.03
2023-03-17T15:40:25.102Z,11.34
2023-03-17T15:42:52.930Z,11.07
2023-03-17T15:45:21.142Z,11.27
2023-03-17T15:47:49.335Z,11.57
2023-03-17T15:50:24.224Z,11.82
2023-03-17T15:52:58.790Z,11.84
2023-03-17T15:55:31.284Z,12.17
2023-03-17T15:57:59.328Z,12.09
2023-03-17T16:00:29.911Z,12.02
2023-03-17T16:02:59.858Z,12.02
2023-03-17T16:05:29.546Z,12.06
2023-03-17T16:07:57.841Z,11.70
2023-03-17T16:10:27.153Z,11.44
2023-03-17T16:12:55.010Z,11.29
2023-03-17T16:15:24.529Z,10.77
2023-03-17T16:17:54.664Z,10.86
2023-03-17T16:20:22.710Z,10.91
2023-03-17T16:22:52.016Z,10.69
2023-03-17T16:25:25.620Z,10.63
2023-03-17T16:27:54.812Z,10.61
2023-03-17T16:30:24.826Z,10.56
2023-03-17T16:32:53.223Z,10.38
2023-03-17T16:35:22.413Z,10.11
2023-03-17T16:37:52.526Z,9.81
2023-03-17T16:40:22.549Z,9.49
2023-03-17T16:42:50.622Z,9.22
2023-03-17T16:45:28.724Z,9.02
2023-03-17T16:47:57.221Z,8.89
2023-03-17T16:50:26.815Z,8.71
2023-03-17T16:52:54.811Z,8.30
2023-03-17T16:55:24.028Z,8.27
2023-03-17T16:57:53.908Z,8.10
2023-03-17T17:00:27.231Z,7.89
2023-03-17T17:02:55.821Z,7.95
2023-03-17T17:05:25.082Z,7.94
2023-03-17T17:07:56.152Z,7.93
2023-03-17T17:10:25.630Z,7.94
2023-03-17T17:12:53.931Z,7.92
2023-03-17T17:15:22.603Z,7.92
2023-03-17T17:17:52.268Z,7.90
2023-03-17T17:20:21.881Z,7.86
2023-03-17T17:22:50.700Z,7.81
2023-03-17T17:25:18.670Z,7.75
2023-03-17T17:27:47.364Z,7.71
2023-03-17T17:30:17.926Z,7.65
2023-03-17T17:32:46.266Z,7.57
2023-03-17T17:35:15.086Z,7.53
2023-03-17T17:37:42.993Z,7.46
2023-03-17T17:40:13.081Z,7.41
2023-03-17T17:42:41.216Z,7.34
2023-03-17T17:45:10.412Z,7.23
2023-03-17T17:47:38.375Z,7.09
2023-03-17T17:50:07.316Z,7.05
2023-03-17T17:52:35.351Z,7.01
2023-03-17T17:55:03.725Z,6.91
2023-03-17T17:57:31.691Z,6.80
2023-03-17T17:59:59.702Z,6.71
2023-03-17T18:02:27.638Z,6.63
2023-03-17T18:04:55.946Z,6.47
2023-03-17T18:07:23.982Z,6.37
2023-03-17T18:09:51.940Z,6.26
2023-03-17T18:12:19.807Z,6.21
2023-03-17T18:14:47.795Z,6.16
2023-03-17T18:17:21.791Z,6.13
2023-03-17T18:19:50.681Z,6.04
2023-03-17T18:22:18.651Z,5.95
2023-03-17T18:24:46.614Z,5.91
2023-03-17T18:27:15.407Z,5.84
2023-03-17T18:29:43.820Z,5.78
2023-03-17T18:32:12.387Z,5.74
2023-03-17T18:34:45.261Z,5.68
2023-03-17T18:37:15.581Z,5.65
2023-03-17T18:39:48.387Z,5.63
2023-03-17T18:42:19.725Z,5.59
2023-03-17T18:44:47.792Z,5.51
2023-03-17T18:47:16.578Z,5.36
2023-03-17T18:49:47.051Z,5.24
2023-03-17T18:52:15.281Z,5.18
2023-03-17T18:54:43.245Z,5.07
2023-03-17T18:57:11.220Z,5.02
2023-03-17T18:59:39.900Z,4.94
2023-03-17T19:02:08.575Z,4.87
2023-03-17T19:04:36.654Z,4.80
2023-03-17T19:07:04.538Z,4.70
2023-03-17T19:09:33.020Z,4.61
2023-03-17T19:12:01.177Z,4.56
2023-03-17T19:14:29.293Z,4.52
2023-03-17T19:16:57.236Z,4.44
2023-03-17T19:19:25.196Z,4.39
2023-03-17T19:21:53.162Z,4.31
2023-03-17T19:24:21.357Z,4.25
2023-03-17T19:26:49.509Z,4.17
2023-03-17T19:29:17.483Z,4.15
2023-03-17T19:31:48.365Z,4.13
2023-03-17T19:34:19.455Z,4.09
2023-03-17T19:36:47.429Z,4.03
2023-03-17T19:39:15.675Z,3.96
2023-03-17T19:41:43.981Z,3.91
2023-03-17T19:44:12.261Z,3.90
2023-03-17T19:46:40.532Z,3.87
2023-03-17T19:49:08.353Z,3.83
2023-03-17T19:51:36.993Z,3.76
2023-03-17T19:54:05.572Z,3.69
2023-03-17T19:56:33.956Z,3.61
2023-03-17T19:59:02.430Z,3.59
2023-03-17T20:01:32.189Z,3.54
2023-03-17T20:04:00.465Z,3.49
2023-03-17T20:06:29.716Z,3.46
2023-03-17T20:08:58.039Z,3.41
2023-03-17T20:11:26.317Z,3.36
2023-03-17T20:13:54.303Z,3.33
2023-03-17T20:16:22.353Z,3.31
2023-03-17T20:18:50.485Z,3.32
2023-03-17T20:21:18.674Z,3.30
2023-03-17T20:23:46.631Z,3.29
2023-03-17T20:26:14.905Z,3.28
2023-03-17T20:28:42.827Z,3.25
2023-03-17T20:31:10.862Z,3.22
2023-03-17T20:33:38.817Z,3.23
2023-03-17T20:36:07.060Z,3.22
2023-03-17T20:38:39.100Z,3.19
2023-03-17T20:41:09.086Z,3.17
2023-03-17T20:43:37.769Z,3.10
2023-03-17T20:46:08.728Z,3.04
2023-03-17T20:48:37.367Z,2.98
2023-03-17T20:51:06.627Z,2.89
2023-03-17T20:53:34.751Z,2.87
2023-03-17T20:56:02.935Z,2.83
2023-03-17T20:58:30.791Z,2.80
2023-03-17T21:00:58.712Z,2.78
2023-03-17T21:03:26.841Z,2.74
2023-03-17T21:05:54.814Z,2.70
2023-03-17T21:08:23.508Z,2.67
2023-03-17T21:10:51.665Z,2.64
2023-03-17T21:13:19.530Z,2.58
2023-03-17T21:15:47.545Z,2.53
2023-03-17T21:18:15.682Z,2.44
2023-03-17T21:20:43.875Z,2.40
2023-03-17T21:23:12.023Z,2.34
2023-03-17T21:25:40.001Z,2.32
2023-03-17T21:28:08.381Z,2.30
2023-03-17T21:30:37.262Z,2.27
2023-03-17T21:33:05.609Z,2.22
2023-03-17T21:35:35.682Z,2.18
2023-03-17T21:38:04.045Z,2.11
2023-03-17T21:40:32.421Z,2.08
2023-03-17T21:43:00.908Z,2.03
2023-03-17T21:45:29.002Z,2.00
2023-03-17T21:47:57.050Z,1.95
2023-03-17T21:50:25.934Z,1.91
2023-03-17T21:52:54.229Z,1.85
2023-03-17T21:55:22.183Z,1.79
2023-03-17T21:57:50.625Z,1.74
2023-03-17T22:00:19.040Z,1.71
2023-03-17T22:02:47.154Z,1.70
2023-03-17T22:05:15.300Z,1.71
2023-03-17T22:07:43.931Z,1.72
2023-03-17T22:10:12.573Z,1.71
2023-03-17T22:12:40.956Z,1.69
2023-03-17T22:15:10.554Z,1.63
2023-03-17T22:17:39.839Z,1.58
2023-03-17T22:20:09.222Z,1.55
2023-03-17T22:22:37.199Z,1.49
2023-03-17T22:25:06.371Z,1.42
2023-03-17T22:27:34.700Z,1.38
2023-03-17T22:30:02.875Z,1.32
2023-03-17T22:32:30.912Z,1.29
2023-03-17T22:34:59.194Z,1.25
2023-03-17T22:37:28.108Z,1.23
2023-03-17T22:39:56.382Z,1.19
2023-03-17T22:42:24.259Z,1.15
2023-03-17T22:44:52.232Z,1.13
2023-03-17T22:47:20.116Z,1.11
2023-03-17T22:49:48.130Z,1.08
2023-03-17T22:52:16.134Z,1.06
2023-03-17T22:54:44.216Z,1.03
2023-03-17T22:57:12.284Z,1.03
2023-03-17T22:59:40.654Z,0.99
2023-03-17T23:02:08.651Z,0.95
2023-03-17T23:04:37.008Z,0.94
2023-03-17T23:07:05.688Z,0.90
2023-03-17T23:09:33.772Z,0.87
2023-03-17T23:12:02.661Z,0.86
2023-03-17T23:14:30.635Z,0.86
2023-03-17T23:16:58.564Z,0.84
2023-03-17T23:19:26.568Z,0.83
2023-03-17T23:21:54.435Z,0.81
2023-03-17T23:24:22.403Z,0.80
2023-03-17T23:26:50.782Z,0.79
2023-03-17T23:29:19.167Z,0.74
2023-03-17T23:31:47.611Z,0.70
2023-03-17T23:34:16.024Z,0.67
2023-03-17T23:36:44.096Z,0.64
2023-03-17T23:39:12.058Z,0.64
2023-03-17T23:41:40.025Z,0.63
2023-03-17T23:44:09.222Z,0.63
2023-03-17T23:46:37.904Z,0.62
2023-03-17T23:49:07.425Z,0.61
2023-03-17T23:51:35.800Z,0.60
2023-03-17T23:54:05.191Z,0.60
2023-03-17T23:56:33.700Z,0.61
2023-03-17T23:59:01.958Z,0.62
